Time;durP1;ratioP1;P1;durP2;ratioP2;P2;SDS_P1;SDS_P2;PMS_P1;PMS_P2;Temp;Humidity;BMP_temperature;BMP_pressure;BME280_temperature;BME280_humidity;BME280_pressure;Samples;Min_cycle;Max_cycle;Signal;HPM_P1;HPM_P2
2021/12/05 00:17:46;;;;;;;52.13;22.37;;;;;;;1.64;53.55;95724.64;1707160;84;25721;-79
2021/12/05 00:22:45;;;;;;;33.45;13.13;;;;;;;1.65;53.53;95719.64;1664427;83;25732;-79
2021/12/05 00:25:18;;;;;;;24.72;11.95;;;;;;;1.65;53.33;95722.80;1706920;83;27613;-79
2021/12/05 00:27:50;;;;;;;20.48;9.88;;;;;;;1.63;53.31;95723.00;1706979;84;25765;-79
2021/12/05 00:33:04;;;;;;;20.88;9.15;;;;;;;1.61;53.30;95722.37;1679341;84;26127;-79
2021/12/05 00:43:29;;;;;;;17.73;8.75;;;;;;;1.60;53.14;95738.52;1707039;84;25295;-80
2021/12/05 00:51:41;;;;;;;24.27;10.85;;;;;;;1.67;53.16;95740.22;1712376;83;27532;-79
2021/12/05 01:12:41;;;;;;;21.07;9.13;;;;;;;1.67;52.20;95746.05;1712746;83;26642;-80
2021/12/05 01:15:05;;;;;;;24.47;11.10;;;;;;;1.68;52.13;95751.17;1710177;83;26336;-80
2021/12/05 01:17:52;;;;;;;18.82;9.53;;;;;;;1.68;52.50;95745.84;1712654;83;27466;-79
2021/12/05 01:20:15;;;;;;;24.63;10.13;;;;;;;1.65;52.56;95742.25;1710820;83;26396;-79
2021/12/05 01:22:49;;;;;;;18.32;8.90;;;;;;;1.67;52.62;95751.36;1712725;83;25663;-79
2021/12/05 01:27:44;;;;;;;21.77;10.15;;;;;;;1.66;52.59;95747.06;1712670;83;25753;-79
2021/12/05 01:30:16;;;;;;;17.70;8.65;;;;;;;1.67;52.40;95751.36;1711854;83;26819;-80
2021/12/05 01:35:39;;;;;;;17.75;8.55;;;;;;;1.59;52.42;95747.00;1712641;83;25729;-80
2021/12/05 01:56:45;;;;;;;14.38;7.45;;;;;;;1.57;51.95;95731.75;1624780;88;28354;-79
2021/12/05 01:59:11;;;;;;;13.83;6.90;;;;;;;1.58;51.93;95732.57;1658927;83;25292;-79
2021/12/05 02:42:28;;;;;;;14.68;7.85;;;;;;;1.66;51.92;95725.27;1712847;83;25745;-79
2021/12/05 02:44:45;;;;;;;14.10;7.05;;;;;;;1.68;52.21;95726.41;1709497;83;26500;-79
2021/12/05 02:47:20;;;;;;;16.48;9.30;;;;;;;1.69;52.04;95734.16;1712760;83;25732;-79
2021/12/05 02:49:49;;;;;;;15.85;8.50;;;;;;;1.74;52.21;95735.73;1710976;83;27373;-79
2021/12/05 02:52:25;;;;;;;13.30;7.62;;;;;;;1.77;52.54;95728.70;1706778;83;25737;-80
2021/12/05 02:54:53;;;;;;;15.72;7.72;;;;;;;1.76;52.86;95728.39;1706515;84;26348;-80
2021/12/05 02:57:34;;;;;;;15.08;7.83;;;;;;;1.75;53.07;95728.58;1707225;83;26065;-79
2021/12/05 02:59:54;;;;;;;13.00;6.85;;;;;;;1.75;53.11;95733.90;1704600;83;25706;-79
2021/12/05 03:02:19;;;;;;;11.85;6.33;;;;;;;1.74;53.07;95730.41;1706594;83;27467;-79
2021/12/05 03:04:49;;;;;;;9.20;5.58;;;;;;;1.72;52.88;95723.14;1707046;84;25710;-79
2021/12/05 03:07:26;;;;;;;9.60;5.83;;;;;;;1.73;53.05;95715.47;1707207;83;25888;-79
2021/12/05 03:09:48;;;;;;;9.18;5.87;;;;;;;1.73;53.35;95719.97;1706384;84;25999;-79
2021/12/05 03:12:19;;;;;;;9.50;5.65;;;;;;;1.71;53.60;95720.16;1707283;84;25705;-79
2021/12/05 03:14:48;;;;;;;9.68;5.83;;;;;;;1.69;53.95;95714.22;1707150;83;28182;-79
2021/12/05 03:17:16;;;;;;;13.60;6.80;;;;;;;1.64;54.27;95724.64;1707076;84;25725;-79
2021/12/05 03:19:43;;;;;;;11.15;6.10;;;;;;;1.66;54.42;95719.95;1707182;83;25671;-79
2021/12/05 03:22:10;;;;;;;8.83;5.80;;;;;;;1.66;54.64;95727.11;1707044;83;27001;-79
2021/12/05 03:24:36;;;;;;;9.25;6.33;;;;;;;1.59;54.79;95728.39;1707224;84;25698;-79
2021/12/05 03:27:04;;;;;;;10.72;6.55;;;;;;;1.59;55.02;95728.39;1707151;83;27477;-79
2021/12/05 03:29:31;;;;;;;8.83;5.83;;;;;;;1.60;55.25;95737.19;1707023;83;26061;-79
2021/12/05 03:31:57;;;;;;;10.90;6.60;;;;;;;1.58;55.64;95736.05;1707149;84;25770;-79
2021/12/05 03:34:25;;;;;;;15.10;7.15;;;;;;;1.54;55.99;95734.81;1706899;84;26053;-79
2021/12/05 03:36:55;;;;;;;10.68;5.97;;;;;;;1.45;56.19;95739.95;1707220;83;25729;-79
2021/12/05 03:39:23;;;;;;;11.38;6.92;;;;;;;1.37;56.67;95740.13;1707121;83;27431;-79
2021/12/05 03:41:52;;;;;;;11.25;7.45;;;;;;;1.33;56.99;95740.19;1707070;83;25848;-79
2021/12/05 03:44:22;;;;;;;10.88;6.97;;;;;;;1.29;57.34;95737.12;1707134;83;26270;-79
2021/12/05 03:46:53;;;;;;;13.05;7.45;;;;;;;1.25;57.73;95736.36;1706893;83;26636;-79
2021/12/05 03:49:21;;;;;;;12.65;7.67;;;;;;;1.21;58.02;95733.80;1707144;83;25893;-79
2021/12/05 03:51:53;;;;;;;13.20;6.67;;;;;;;1.16;58.43;95737.53;1712336;83;27423;-79
2021/12/05 03:54:21;;;;;;;12.28;8.20;;;;;;;1.11;58.65;95739.93;1712735;83;32124;-79
2021/12/05 03:56:48;;;;;;;14.85;8.33;;;;;;;1.08;58.97;95743.82;1712712;83;25833;-79
2021/12/05 03:59:16;;;;;;;13.13;7.37;;;;;;;1.07;59.33;95746.98;1712712;83;26030;-79
2021/12/05 04:01:43;;;;;;;13.22;7.42;;;;;;;1.04;59.27;95742.55;1712753;83;25211;-79
2021/12/05 04:04:12;;;;;;;13.40;8.00;;;;;;;1.00;59.50;95743.44;1712711;83;27330;-79
2021/12/05 04:06:39;;;;;;;13.08;8.35;;;;;;;1.00;59.74;95742.10;1712646;83;25746;-79
2021/12/05 04:09:10;;;;;;;11.45;7.22;;;;;;;1.03;59.83;95747.55;1712719;83;25722;-79
2021/12/05 04:11:44;;;;;;;14.98;8.15;;;;;;;0.98;60.18;95748.11;1711924;83;26814;-79
2021/12/05 04:14:13;;;;;;;12.33;8.83;;;;;;;0.89;60.21;95747.94;1712775;83;25709;-79
2021/12/05 04:16:41;;;;;;;13.62;7.97;;;;;;;0.89;60.56;95750.59;1712750;83;27427;-79
2021/12/05 04:19:08;;;;;;;13.58;8.08;;;;;;;0.77;60.70;95750.80;1712663;83;25664;-79
2021/12/05 04:21:37;;;;;;;17.23;8.95;;;;;;;0.72;60.95;95749.23;1712669;83;25697;-79
2021/12/05 04:24:07;;;;;;;17.60;10.53;;;;;;;0.72;61.42;95743.39;1712695;83;26293;-79
2021/12/05 04:26:34;;;;;;;18.35;10.43;;;;;;;0.54;62.25;95737.72;1712703;83;25708;-79
2021/12/05 04:29:03;;;;;;;31.85;12.82;;;;;;;0.38;62.30;95748.58;1712737;83;28011;-79
2021/12/05 04:31:29;;;;;;;23.10;11.15;;;;;;;0.31;62.55;95749.84;1712567;83;25777;-79
2021/12/05 04:33:56;;;;;;;22.52;11.57;;;;;;;0.28;62.84;95748.89;1669109;84;25699;-79
2021/12/05 04:36:23;;;;;;;23.18;12.95;;;;;;;0.28;63.15;95754.20;1653032;86;26038;-79
2021/12/05 04:38:50;;;;;;;18.25;12.23;;;;;;;0.29;63.34;95755.84;1644299;86;25735;-79
2021/12/05 04:41:17;;;;;;;42.83;25.70;;;;;;;0.32;63.58;95762.11;1683606;85;28166;-79
2021/12/05 04:43:44;;;;;;;24.27;13.28;;;;;;;0.32;63.76;95752.83;1683542;85;25896;-79
2021/12/05 04:46:21;;;;;;;24.23;14.55;;;;;;;0.31;64.09;95756.48;1683565;84;25710;-79
2021/12/05 04:48:52;;;;;;;17.48;9.58;;;;;;;0.29;64.16;95758.50;1683548;85;25977;-79
2021/12/05 04:51:23;;;;;;;15.45;9.98;;;;;;;0.29;64.38;95760.33;1681946;85;25667;-80
2021/12/05 04:53:50;;;;;;;20.20;9.60;;;;;;;0.29;64.60;95757.67;1681093;85;27440;-79
2021/12/05 04:56:18;;;;;;;20.45;10.48;;;;;;;0.24;64.90;95761.41;1681213;85;25706;-79
2021/12/05 04:58:45;;;;;;;17.35;9.83;;;;;;;0.17;65.05;95762.65;1681288;85;25803;-79
2021/12/05 05:01:12;;;;;;;30.75;14.45;;;;;;;0.12;65.24;95769.54;1681312;85;26622;-79
2021/12/05 05:03:39;;;;;;;29.42;14.15;;;;;;;0.14;65.46;95781.59;1681323;85;25773;-79
2021/12/05 05:06:14;;;;;;;29.12;14.15;;;;;;;0.15;65.61;95774.45;1681250;84;28194;-79
2021/12/05 05:08:37;;;;;;;;;;;;;;;0.17;65.66;95778.57;1683180;85;25693;-79
2021/12/05 05:11:08;;;;;;;25.25;13.60;;;;;;;0.19;66.13;95781.86;1681369;85;26482;-79
2021/12/05 05:13:37;;;;;;;23.83;12.68;;;;;;;0.18;66.00;95781.55;1681501;85;26768;-79
2021/12/05 05:16:06;;;;;;;23.12;12.63;;;;;;;0.19;66.12;95779.72;1681558;85;25742;-79
2021/12/05 05:18:56;;;;;;;23.98;13.95;;;;;;;0.18;66.17;95777.56;1681447;85;27448;-79
2021/12/05 05:23:45;;;;;;;18.98;11.20;;;;;;;0.19;66.49;95784.52;1681615;85;25769;-79
2021/12/05 05:50:15;;;;;;;23.07;15.48;;;;;;;0.20;67.74;95802.09;1681310;85;25807;-80
2021/12/05 05:52:42;;;;;;;22.87;15.05;;;;;;;0.18;67.77;95801.95;1678474;85;26052;-79
2021/12/05 05:55:10;;;;;;;21.02;13.80;;;;;;;0.19;67.91;95808.41;1678290;85;25821;-79
2021/12/05 05:57:49;;;;;;;21.55;12.93;;;;;;;0.19;67.92;95812.88;1678549;84;27480;-79
2021/12/05 06:00:28;;;;;;;20.30;12.88;;;;;;;0.20;67.99;95810.05;1677603;85;25658;-79
2021/12/05 06:05:34;;;;;;;21.90;13.35;;;;;;;0.23;68.19;95814.99;1678221;85;25981;-79
2021/12/05 06:08:01;;;;;;;21.87;14.63;;;;;;;0.25;68.27;95812.95;1678486;84;25650;-79
2021/12/05 06:10:31;;;;;;;20.20;12.68;;;;;;;0.25;68.33;95813.45;1678511;84;27377;-80
2021/12/05 06:12:59;;;;;;;22.93;12.78;;;;;;;0.26;68.41;95816.42;1672442;85;25799;-79
2021/12/05 06:15:28;;;;;;;22.62;13.72;;;;;;;0.27;68.48;95818.90;1707199;84;25737;-80
2021/12/05 06:17:55;;;;;;;23.65;13.93;;;;;;;0.28;68.50;95819.22;1707224;83;25995;-80
2021/12/05 06:20:26;;;;;;;23.52;13.43;;;;;;;0.29;68.60;95812.91;1707240;83;25676;-80
2021/12/05 06:22:54;;;;;;;23.73;14.00;;;;;;;0.30;68.79;95821.19;1707207;84;27405;-79
2021/12/05 06:25:26;;;;;;;23.52;14.18;;;;;;;0.29;68.94;95822.19;1707075;84;25706;-79
2021/12/05 06:27:59;;;;;;;25.48;14.73;;;;;;;0.30;68.98;95826.50;1707318;84;25907;-79
2021/12/05 06:41:20;;;;;;;31.10;15.95;;;;;;;0.34;69.33;95833.09;1707168;83;25307;-79
2021/12/05 06:46:19;;;;;;;33.67;17.37;;;;;;;0.36;69.49;95835.03;1707263;84;25562;-79
2021/12/05 06:48:42;;;;;;;30.37;17.42;;;;;;;0.40;69.53;95838.64;1705225;84;28253;-79
2021/12/05 06:51:12;;;;;;;28.25;16.17;;;;;;;0.43;69.51;95838.28;1707921;83;25766;-79
2021/12/05 06:53:39;;;;;;;28.32;15.75;;;;;;;0.45;69.62;95836.27;1710689;83;25749;-79
2021/12/05 06:56:07;;;;;;;29.57;16.73;;;;;;;0.45;69.62;95841.58;1710774;83;26107;-79
2021/12/05 06:58:35;;;;;;;32.63;16.77;;;;;;;0.43;69.67;95840.43;1710941;83;25615;-79
2021/12/05 07:01:07;;;;;;;29.10;15.83;;;;;;;0.43;69.72;95834.30;1710914;83;28326;-79
2021/12/05 07:03:35;;;;;;;44.10;21.87;;;;;;;0.44;69.69;95841.25;1711071;83;26265;-79
2021/12/05 07:08:35;;;;;;;29.50;16.70;;;;;;;0.48;69.89;95849.17;1710942;83;25670;-79
2021/12/05 07:11:06;;;;;;;34.33;17.73;;;;;;;0.45;69.97;95845.55;1710764;83;26208;-79
2021/12/05 07:16:05;;;;;;;40.85;21.35;;;;;;;0.42;70.21;95849.91;1674405;84;25900;-79
2021/12/05 07:21:23;;;;;;;36.03;19.52;;;;;;;0.43;70.23;95860.34;1639902;86;26057;-79
2021/12/05 07:23:47;;;;;;;78.62;31.87;;;;;;;0.44;70.20;95866.47;1655649;86;25737;-79
2021/12/05 07:26:17;;;;;;;110.72;40.15;;;;;;;0.49;70.06;95874.69;1673136;84;27577;-79
2021/12/05 07:42:28;;;;;;;45.88;22.05;;;;;;;0.71;70.24;95872.41;1647015;87;26048;-79
2021/12/05 07:44:59;;;;;;;43.08;21.17;;;;;;;0.75;70.25;95873.66;1639785;87;25826;-79
2021/12/05 07:47:30;;;;;;;37.85;19.52;;;;;;;0.78;70.26;95869.81;1659302;86;26055;-79
2021/12/05 07:49:56;;;;;;;38.48;18.75;;;;;;;0.80;70.31;95858.00;1674032;84;25712;-79
2021/12/05 07:52:26;;;;;;;31.95;17.70;;;;;;;0.82;70.03;95858.64;1650496;85;27903;-79
2021/12/05 07:54:59;;;;;;;37.30;19.48;;;;;;;0.85;69.80;95858.23;1641217;87;25797;-79
2021/12/05 07:57:26;;;;;;;41.85;21.65;;;;;;;0.83;69.78;95858.96;1650199;86;25644;-79
2021/12/05 08:00:13;;;;;;;40.75;20.23;;;;;;;0.85;69.82;95864.06;1650947;86;26680;-79
2021/12/05 08:16:24;;;;;;;53.70;23.25;;;;;;;1.03;69.61;95863.95;1651837;86;25765;-79
2021/12/05 08:18:46;;;;;;;65.62;28.50;;;;;;;1.06;69.70;95876.87;1650700;86;28290;-78
2021/12/05 08:21:14;;;;;;;50.17;25.52;;;;;;;1.07;69.81;95876.37;1651727;86;25755;-79
2021/12/05 08:23:41;;;;;;;47.27;24.77;;;;;;;1.12;69.84;95878.44;1651759;86;25847;-79
2021/12/05 08:26:12;;;;;;;57.95;30.72;;;;;;;1.17;69.79;95884.02;1651614;86;26459;-79
2021/12/05 08:31:19;;;;;;;61.83;31.15;;;;;;;1.24;69.73;95880.91;1651784;86;27614;-79
2021/12/05 08:34:00;;;;;;;73.17;33.28;;;;;;;1.20;69.72;95884.47;1651257;86;25702;-79
2021/12/05 08:36:44;;;;;;;83.80;37.45;;;;;;;1.21;69.76;95885.30;1648919;86;25687;-79
2021/12/05 08:44:28;;;;;;;50.17;27.93;;;;;;;1.24;70.01;95884.39;1651740;86;27422;-79
2021/12/05 09:27:46;;;;;;;40.10;24.15;;;;;;;1.80;69.79;95886.61;1674424;84;26316;-80
2021/12/05 10:10:37;;;;;;;46.15;23.52;;;;;;;2.49;68.56;95883.94;1635830;85;25805;-80
2021/12/05 10:27:22;;;;;;;36.98;18.87;;;;;;;2.53;68.21;95885.70;1671919;85;26069;-81
2021/12/05 10:38:18;;;;;;;26.30;15.72;;;;;;;2.64;67.67;95882.47;1672080;85;26325;-80
2021/12/05 10:41:17;;;;;;;30.08;16.50;;;;;;;2.64;67.58;95890.97;1672116;85;26001;-80
2021/12/05 10:43:32;;;;;;;29.37;15.95;;;;;;;2.70;67.60;95896.31;1670337;85;25667;-80
2021/12/05 10:46:09;;;;;;;26.70;15.48;;;;;;;2.76;67.62;95880.88;1672012;85;28164;-80
2021/12/05 10:48:46;;;;;;;27.37;14.58;;;;;;;2.81;67.57;95876.26;1671906;85;25831;-80
2021/12/05 10:51:27;;;;;;;27.55;15.78;;;;;;;2.89;67.83;95870.26;1671993;85;25716;-80
2021/12/05 10:54:10;;;;;;;25.52;15.98;;;;;;;2.97;67.52;95868.42;1671774;85;26555;-80
2021/12/05 10:56:41;;;;;;;30.10;17.85;;;;;;;3.04;67.23;95870.07;1672045;85;25737;-80
2021/12/05 10:59:37;;;;;;;34.27;19.90;;;;;;;3.11;67.23;95865.59;1671751;85;29443;-80
2021/12/05 11:02:06;;;;;;;38.58;20.85;;;;;;;3.15;67.26;95864.66;1671913;85;25278;-79
2021/12/05 11:04:38;;;;;;;81.80;37.78;;;;;;;3.19;67.24;95862.72;1672102;85;26299;-79
2021/12/05 11:07:15;;;;;;;61.35;29.25;;;;;;;3.22;67.24;95871.66;1672152;85;26089;-79
2021/12/05 11:09:57;;;;;;;80.50;34.30;;;;;;;3.29;67.35;95876.98;1671961;85;25746;-80
2021/12/05 11:12:33;;;;;;;115.67;39.90;;;;;;;3.32;67.47;95869.09;1672048;85;28188;-80
2021/12/05 11:15:05;;;;;;;90.87;34.70;;;;;;;3.34;67.21;95871.05;1671949;85;25796;-80
2021/12/05 11:17:37;;;;;;;80.95;33.10;;;;;;;3.34;67.32;95882.55;1671113;85;25782;-80
2021/12/05 11:20:09;;;;;;;103.07;38.08;;;;;;;3.38;67.36;95890.97;1672188;85;26201;-80
2021/12/05 11:22:43;;;;;;;53.23;24.72;;;;;;;3.39;67.65;95888.58;1672263;85;25759;-80
2021/12/05 11:25:18;;;;;;;50.48;23.92;;;;;;;3.38;67.48;95886.43;1670834;85;27381;-80
2021/12/05 11:27:48;;;;;;;63.38;32.10;;;;;;;3.40;67.59;95886.23;1671943;85;26308;-80
2021/12/05 11:30:35;;;;;;;50.55;26.80;;;;;;;3.44;67.60;95879.47;1873789;75;35086;-80
2021/12/05 11:33:19;;;;;;;109.78;38.92;;;;;;;3.39;67.48;95885.92;1844886;77;25796;-80
2021/12/05 11:35:57;;;;;;;76.67;30.62;;;;;;;3.37;67.55;95882.15;1844812;77;28252;-80
2021/12/05 11:38:27;;;;;;;55.28;28.52;;;;;;;3.38;67.59;95882.97;1844365;77;25826;-80
2021/12/05 11:41:02;;;;;;;93.62;38.55;;;;;;;3.36;67.55;95887.68;1845076;77;25651;-80
2021/12/05 11:43:39;;;;;;;49.98;26.20;;;;;;;3.35;67.60;95894.04;1845194;77;25721;-81
2021/12/05 11:46:16;;;;;;;80.95;30.70;;;;;;;3.31;67.55;95895.45;1845075;76;25741;-80
2021/12/05 11:48:53;;;;;;;45.05;21.25;;;;;;;3.28;67.42;95901.19;1845129;77;28139;-82
2021/12/05 11:51:29;;;;;;;39.67;19.20;;;;;;;3.26;67.46;95911.55;1844950;76;25726;-82
2021/12/05 11:54:12;;;;;;;33.30;19.02;;;;;;;3.30;67.45;95917.81;1845108;76;25807;-83
2021/12/05 11:57:01;;;;;;;31.95;17.92;;;;;;;3.33;67.37;95922.75;1843887;77;26126;-83
2021/12/05 11:59:54;;;;;;;30.48;16.37;;;;;;;3.32;67.34;95919.26;1823497;77;25853;-81
2021/12/05 12:02:33;;;;;;;36.15;19.75;;;;;;;3.30;67.27;95917.81;1845233;77;27523;-83
2021/12/05 12:05:14;;;;;;;35.98;19.17;;;;;;;3.30;67.32;95921.30;1844935;77;25834;-82
2021/12/05 12:07:46;;;;;;;36.23;20.23;;;;;;;3.32;67.38;95919.77;1844966;77;25673;-81
2021/12/05 12:10:27;;;;;;;36.90;20.10;;;;;;;3.30;67.73;95924.48;1845160;76;25874;-82
2021/12/05 12:13:04;;;;;;;37.00;20.05;;;;;;;3.26;67.78;95935.55;1845067;77;25792;-81
2021/12/05 12:15:32;;;;;;;37.33;20.52;;;;;;;3.26;67.87;95939.55;1845132;77;27056;-81
2021/12/05 12:18:16;;;;;;;37.35;21.70;;;;;;;3.26;68.01;95933.39;1845003;76;26464;-81
2021/12/05 12:20:39;;;;;;;40.08;22.20;;;;;;;3.22;68.24;95934.84;1841696;77;25928;-81
2021/12/05 12:23:06;;;;;;;50.08;26.93;;;;;;;3.16;68.44;95931.63;1845101;77;25945;-81
2021/12/05 12:25:38;;;;;;;56.20;29.98;;;;;;;3.11;68.72;95939.42;1845055;77;25740;-81
2021/12/05 12:28:07;;;;;;;47.88;23.05;;;;;;;3.02;68.88;95929.42;1845215;77;27415;-81
2021/12/05 12:30:39;;;;;;;55.85;28.62;;;;;;;3.00;68.98;95924.00;1844651;77;25667;-81
2021/12/05 12:33:14;;;;;;;54.53;29.07;;;;;;;3.01;69.05;95929.14;1845059;77;25730;-81
2021/12/05 12:35:47;;;;;;;58.80;31.37;;;;;;;3.00;69.09;95928.83;1844208;76;25730;-81
2021/12/05 12:38:21;;;;;;;55.58;28.25;;;;;;;3.01;69.07;95931.80;1845082;77;25654;-81
2021/12/05 12:41:17;;;;;;;132.80;64.25;;;;;;;2.97;69.26;95917.22;1844680;77;27411;-81
2021/12/05 12:44:06;;;;;;;90.07;43.73;;;;;;;2.92;69.29;95920.98;1844368;77;25709;-81
2021/12/05 12:46:50;;;;;;;65.87;33.25;;;;;;;2.93;68.99;95913.30;1844496;76;25743;-81
2021/12/05 12:49:21;;;;;;;56.45;28.90;;;;;;;2.94;69.05;95906.95;1811316;77;25338;-81
2021/12/05 12:51:59;;;;;;;58.50;27.58;;;;;;;2.96;69.07;95900.91;1844603;77;25695;-81
2021/12/05 12:54:37;;;;;;;49.67;24.92;;;;;;;2.99;69.02;95903.70;1844116;76;27415;-81
2021/12/05 12:57:20;;;;;;;49.77;24.50;;;;;;;3.05;69.03;95908.21;1844356;76;25733;-80
2021/12/05 12:59:55;;;;;;;55.80;26.75;;;;;;;3.06;68.98;95902.69;1844256;77;25707;-80
2021/12/05 13:02:30;;;;;;;52.70;25.77;;;;;;;3.06;69.00;95904.02;1844194;76;26169;-81
2021/12/05 13:05:19;;;;;;;52.93;25.62;;;;;;;3.07;69.01;95905.66;1842370;76;25833;-81
2021/12/05 13:10:38;;;;;;;54.88;27.65;;;;;;;3.02;69.51;95902.77;1843988;76;25658;-81
2021/12/05 13:13:15;;;;;;;70.67;33.63;;;;;;;3.04;69.47;95898.06;1844512;76;25639;-81
2021/12/05 13:15:48;;;;;;;92.75;39.25;;;;;;;3.05;69.59;95898.38;1844285;77;25778;-81
2021/12/05 13:18:30;;;;;;;105.37;46.10;;;;;;;3.06;69.57;95909.86;1844383;76;25650;-81
2021/12/05 13:21:10;;;;;;;74.07;35.13;;;;;;;3.08;69.44;95909.98;1844726;77;27334;-81
2021/12/05 13:23:45;;;;;;;74.27;37.35;;;;;;;3.10;69.33;95915.94;1844504;77;25623;-81
2021/12/05 13:26:42;;;;;;;78.67;39.15;;;;;;;3.10;69.57;95913.27;1844428;77;25716;-81
2021/12/05 13:29:25;;;;;;;85.17;41.50;;;;;;;3.10;69.78;95916.44;1845559;76;25797;-81
2021/12/05 13:32:12;;;;;;;83.90;41.98;;;;;;;3.08;69.81;95915.30;1850124;76;25761;-81
2021/12/05 13:34:51;;;;;;;81.78;42.80;;;;;;;3.10;69.83;95917.27;1850363;76;27460;-81
2021/12/05 13:37:28;;;;;;;91.28;49.48;;;;;;;3.09;69.80;95916.95;1850345;76;25698;-81
2021/12/05 13:40:09;;;;;;;124.40;57.65;;;;;;;3.09;69.92;95916.95;1850405;77;25229;-82
2021/12/05 13:42:46;;;;;;;135.97;58.02;;;;;;;3.09;70.06;95914.80;1850376;77;25785;-81
2021/12/05 13:45:29;;;;;;;95.60;47.20;;;;;;;3.06;70.28;95920.02;1850396;76;25772;-81
2021/12/05 13:48:05;;;;;;;93.80;47.17;;;;;;;2.99;70.34;95914.36;1850370;77;27389;-82
2021/12/05 13:50:38;;;;;;;88.40;44.98;;;;;;;2.97;70.45;95923.89;1850224;77;25993;-82
2021/12/05 13:53:10;;;;;;;93.15;48.80;;;;;;;2.96;70.65;95920.91;1850298;77;25678;-82
2021/12/05 13:55:45;;;;;;;104.50;56.00;;;;;;;2.90;70.72;95927.84;1850334;77;25753;-82
2021/12/05 13:58:40;;;;;;;117.22;61.92;;;;;;;2.86;70.88;95923.95;1848821;77;25682;-82
2021/12/05 14:01:21;;;;;;;129.68;65.25;;;;;;;2.85;70.82;95922.81;1850414;77;27367;-82
2021/12/05 14:04:12;;;;;;;129.23;67.53;;;;;;;2.87;70.79;95911.45;1850285;76;25680;-83
2021/12/05 14:06:58;;;;;;;157.05;72.78;;;;;;;2.89;70.84;95912.08;1850272;77;25720;-82
2021/12/05 14:09:37;;;;;;;192.05;78.17;;;;;;;2.89;70.86;95914.23;1850300;76;25839;-82
2021/12/05 14:12:19;;;;;;;170.55;72.87;;;;;;;2.90;70.84;95923.02;1850336;77;25679;-82
2021/12/05 14:15:02;;;;;;;141.40;67.85;;;;;;;2.89;70.83;95930.23;1850371;77;28052;-82
2021/12/05 14:17:35;;;;;;;132.82;69.75;;;;;;;2.87;70.99;95926.11;1850087;77;25232;-81
2021/12/05 14:20:20;;;;;;;137.77;69.42;;;;;;;2.86;71.00;95929.80;1850338;76;25741;-81
2021/12/05 14:22:49;;;;;;;138.07;70.37;;;;;;;2.85;71.13;95932.14;1850222;77;25704;-82
2021/12/05 14:25:20;;;;;;;125.12;61.28;;;;;;;2.85;71.21;95934.81;1850379;76;25638;-81
2021/12/05 14:27:54;;;;;;;142.80;75.05;;;;;;;2.86;71.20;95936.45;1850361;76;27357;-82
2021/12/05 14:30:24;;;;;;;142.55;74.55;;;;;;;2.90;71.18;95944.34;1846459;77;25829;-82
2021/12/05 14:32:57;;;;;;;134.80;72.05;;;;;;;2.93;71.21;95947.95;1844095;76;25734;-82
2021/12/05 14:35:33;;;;;;;130.30;70.00;;;;;;;2.94;71.21;95952.77;1843650;76;26101;-82
2021/12/05 14:38:02;;;;;;;131.27;68.52;;;;;;;2.93;71.23;95953.28;1844383;77;25667;-82
2021/12/05 14:40:32;;;;;;;126.72;65.37;;;;;;;2.86;71.25;95960.44;1844462;77;28305;-81
2021/12/05 14:43:09;;;;;;;116.97;62.53;;;;;;;2.81;71.28;95961.53;1844297;77;25651;-82
2021/12/05 14:45:40;;;;;;;113.25;58.98;;;;;;;2.79;71.33;95968.90;1844459;76;26244;-82
2021/12/05 14:48:10;;;;;;;84.13;45.25;;;;;;;2.75;71.40;95973.00;1844406;76;25762;-82
2021/12/05 14:50:39;;;;;;;88.60;46.30;;;;;;;2.68;71.50;95968.13;1844050;77;25180;-81
2021/12/05 14:53:10;;;;;;;101.97;54.58;;;;;;;2.66;71.54;95980.31;1844317;77;27377;-80
2021/12/05 14:55:36;;;;;;;103.00;54.70;;;;;;;2.64;71.57;95984.22;1844301;77;25828;-81
2021/12/05 14:58:10;;;;;;;97.72;51.55;;;;;;;2.61;71.69;95985.93;1844366;77;25782;-81
2021/12/05 15:00:46;;;;;;;104.85;52.90;;;;;;;2.58;71.83;95998.30;1844348;76;26397;-81
2021/12/05 15:03:18;;;;;;;116.65;56.98;;;;;;;2.51;71.96;96001.77;1843940;77;25793;-81
2021/12/05 15:05:58;;;;;;;110.63;57.08;;;;;;;2.51;72.03;96008.42;1844289;77;27354;-81
2021/12/05 15:08:31;;;;;;;111.57;53.40;;;;;;;2.52;72.14;96014.06;1844259;77;25970;-81
2021/12/05 15:11:00;;;;;;;;;;;;;;;2.52;72.16;96014.06;1847111;76;25694;-81
2021/12/05 15:13:27;;;;;;;116.53;53.17;;;;;;;2.50;72.25;96010.77;1844023;76;25711;-81
2021/12/05 15:15:54;;;;;;;111.32;54.83;;;;;;;2.45;72.24;96020.34;1844281;76;25232;-81
2021/12/05 15:18:28;;;;;;;106.45;54.10;;;;;;;2.39;72.32;96017.97;1844309;76;27625;-81
2021/12/05 15:20:53;;;;;;;108.95;53.70;;;;;;;2.37;72.44;96023.99;1843707;77;25711;-81
2021/12/05 15:23:21;;;;;;;111.65;55.03;;;;;;;2.37;72.55;96021.84;1844305;77;25755;-81
2021/12/05 15:25:48;;;;;;;118.53;58.90;;;;;;;2.38;72.59;96014.16;1843976;77;25973;-82
2021/12/05 15:28:17;;;;;;;118.10;58.83;;;;;;;2.38;72.57;96013.66;1844337;77;25686;-81
2021/12/05 15:30:47;;;;;;;122.02;60.28;;;;;;;2.36;72.53;96020.19;1856786;76;27448;-81
2021/12/05 15:33:21;;;;;;;119.28;60.88;;;;;;;2.34;72.58;96025.70;1865460;76;25287;-81
2021/12/05 15:35:49;;;;;;;123.80;59.55;;;;;;;2.31;72.66;96026.08;1865547;76;25784;-81
2021/12/05 15:38:23;;;;;;;139.12;66.97;;;;;;;2.31;72.73;96034.07;1865588;76;25677;-80
2021/12/05 15:40:54;;;;;;;139.80;69.22;;;;;;;2.29;72.74;96034.80;1865535;76;25764;-80
2021/12/05 15:43:25;;;;;;;146.87;70.97;;;;;;;2.29;72.81;96037.46;1865559;76;28191;-80
2021/12/05 15:45:57;;;;;;;144.33;73.40;;;;;;;2.25;72.89;96037.52;1865737;76;25771;-80
2021/12/05 15:48:29;;;;;;;142.43;74.80;;;;;;;2.24;73.02;96038.53;1865561;76;25759;-80
2021/12/05 15:50:56;;;;;;;;;;;;;;;2.23;73.09;96039.55;1868073;76;25739;-80
2021/12/05 15:53:25;;;;;;;146.28;74.85;;;;;;;2.21;73.30;96041.58;1865535;76;25645;-80
2021/12/05 15:55:58;;;;;;;140.47;72.67;;;;;;;2.21;73.35;96050.89;1865494;76;28375;-81
2021/12/05 15:58:33;;;;;;;144.95;74.97;;;;;;;2.24;73.37;96051.02;1865418;76;25733;-81
2021/12/05 16:01:14;;;;;;;145.62;75.35;;;;;;;2.26;73.36;96048.48;1859310;76;25726;-81
2021/12/05 16:03:57;;;;;;;155.12;77.22;;;;;;;2.24;73.28;96041.20;1864013;76;25689;-81
2021/12/05 16:06:38;;;;;;;164.93;81.12;;;;;;;2.16;73.31;96035.52;1865531;76;25617;-81
2021/12/05 16:09:21;;;;;;;180.15;93.58;;;;;;;2.09;73.43;96037.28;1851788;75;27399;-81
2021/12/05 16:11:50;;;;;;;221.37;108.97;;;;;;;2.05;73.57;96036.00;1865356;76;25640;-81
2021/12/05 16:14:29;;;;;;;201.37;101.60;;;;;;;2.09;73.63;96035.95;1865478;76;25836;-81
2021/12/05 16:16:56;;;;;;;197.62;102.07;;;;;;;2.12;73.67;96026.77;1851290;76;25790;-80
2021/12/05 16:19:22;;;;;;;203.47;101.27;;;;;;;2.12;73.66;96024.09;1865640;76;25788;-80
2021/12/05 16:21:49;;;;;;;190.55;98.25;;;;;;;2.10;73.67;96035.44;1865645;76;28123;-80
2021/12/05 16:24:20;;;;;;;185.03;97.62;;;;;;;2.06;73.75;96037.66;1836758;76;25782;-80
2021/12/05 16:26:50;;;;;;;194.82;100.92;;;;;;;2.04;73.83;96034.89;1865617;76;25772;-80
2021/12/05 16:29:22;;;;;;;198.72;97.35;;;;;;;2.05;73.86;96043.20;1865666;76;26200;-80
2021/12/05 16:31:59;;;;;;;208.28;104.25;;;;;;;2.04;73.86;96045.03;1851651;76;25646;-80
2021/12/05 16:34:30;;;;;;;217.80;110.22;;;;;;;2.07;73.91;96051.79;1850313;76;28133;-80
2021/12/05 16:37:05;;;;;;;196.93;104.17;;;;;;;2.10;73.92;96059.40;1850051;76;25702;-80
2021/12/05 16:39:37;;;;;;;200.20;100.00;;;;;;;2.12;73.94;96061.37;1850423;76;25797;-80
2021/12/05 16:42:12;;;;;;;193.43;98.27;;;;;;;2.13;73.97;96060.36;1850524;76;25660;-80
2021/12/05 16:44:40;;;;;;;191.15;97.75;;;;;;;2.11;73.94;96054.39;1849663;77;25674;-80
2021/12/05 16:47:14;;;;;;;197.05;101.02;;;;;;;2.09;73.95;96049.77;1849975;76;28376;-80
2021/12/05 16:49:45;;;;;;;208.07;105.15;;;;;;;2.04;74.04;96048.20;1849861;76;25559;-80
2021/12/05 16:52:28;;;;;;;226.47;107.90;;;;;;;2.01;74.12;96040.09;1850280;77;25248;-80
2021/12/05 16:55:08;;;;;;;220.78;106.17;;;;;;;2.01;74.14;96032.61;1850403;76;25722;-80
2021/12/05 16:57:43;;;;;;;229.55;107.40;;;;;;;2.02;74.24;96035.59;1849474;75;25739;-80
2021/12/05 17:00:19;;;;;;;231.05;108.22;;;;;;;1.95;74.24;96028.86;1849237;77;28124;-80